createdAt,value
2022-08-17T00:00:42.861Z,13.40
2022-08-17T00:03:19.406Z,15.40
2022-08-17T00:06:00.081Z,14.40
2022-08-17T00:08:32.609Z,13.60
2022-08-17T00:11:01.807Z,13.80
2022-08-17T00:13:36.991Z,14.10
2022-08-17T00:16:11.331Z,13.90
2022-08-17T00:19:06.744Z,13.30
2022-08-17T00:21:49.168Z,13.40
2022-08-17T00:24:18.104Z,16.80
2022-08-17T00:26:47.170Z,16.40
2022-08-17T00:29:19.722Z,16.10
2022-08-17T00:31:49.540Z,15.40
2022-08-17T00:34:18.100Z,15.00
2022-08-17T00:36:46.106Z,15.20
2022-08-17T00:39:14.227Z,14.10
2022-08-17T00:41:42.763Z,14.00
2022-08-17T00:44:12.448Z,13.60
2022-08-17T00:46:42.995Z,14.50
2022-08-17T00:49:13.744Z,15.80
2022-08-17T00:52:15.697Z,15.90
2022-08-17T00:54:47.103Z,16.30
2022-08-17T00:57:32.995Z,16.10
2022-08-17T01:00:06.504Z,14.90
2022-08-17T01:02:42.265Z,15.30
2022-08-17T01:05:18.648Z,16.40
2022-08-17T01:07:51.010Z,15.80
2022-08-17T01:10:59.305Z,15.60
2022-08-17T01:13:13.897Z,15.80
2022-08-17T01:15:49.067Z,15.00
2022-08-17T01:18:17.112Z,14.40
2022-08-17T01:20:49.850Z,16.20
2022-08-17T01:23:21.401Z,16.40
2022-08-17T01:25:52.085Z,16.10
2022-08-17T01:28:52.418Z,15.40
2022-08-17T01:31:09.524Z,14.80
2022-08-17T01:33:37.909Z,16.70
2022-08-17T01:36:07.415Z,14.40
2022-08-17T01:38:37.273Z,15.60
2022-08-17T01:41:15.543Z,16.30
2022-08-17T01:43:52.243Z,15.40
2022-08-17T01:46:27.322Z,15.50
2022-08-17T01:48:58.597Z,14.80
2022-08-17T01:51:33.298Z,15.90
2022-08-17T01:54:11.223Z,15.30
2022-08-17T01:56:47.930Z,16.10
2022-08-17T01:59:20.240Z,15.70
2022-08-17T02:01:48.429Z,15.50
2022-08-17T02:04:16.463Z,17.40
2022-08-17T02:06:52.569Z,17.40
2022-08-17T02:09:29.597Z,17.20
2022-08-17T02:12:38.186Z,16.40
2022-08-17T02:14:50.439Z,15.00
2022-08-17T02:17:18.488Z,15.30
2022-08-17T02:19:46.516Z,16.10
2022-08-17T02:22:15.758Z,16.80
2022-08-17T02:24:59.469Z,17.10
2022-08-17T02:27:30.118Z,17.40
2022-08-17T02:29:58.134Z,18.00
2022-08-17T02:32:28.523Z,15.90
2022-08-17T02:34:58.075Z,15.20
2022-08-17T02:37:27.532Z,15.70
2022-08-17T02:39:59.628Z,16.60
2022-08-17T02:42:38.456Z,16.60
2022-08-17T02:45:13.934Z,18.00
2022-08-17T02:47:43.602Z,17.20
2022-08-17T02:50:14.769Z,18.40
2022-08-17T02:52:45.057Z,17.60
2022-08-17T02:55:34.663Z,18.30
2022-08-17T02:58:03.931Z,16.60
2022-08-17T03:00:36.077Z,17.00
2022-08-17T03:03:30.520Z,17.40
2022-08-17T03:05:58.697Z,18.80
2022-08-17T03:09:43.229Z,18.40
2022-08-17T03:12:13.599Z,17.30
2022-08-17T03:14:43.357Z,19.30
2022-08-17T03:17:16.969Z,18.30
2022-08-17T03:19:45.354Z,18.50
2022-08-17T03:22:37.176Z,20.30
2022-08-17T03:25:01.246Z,20.30
2022-08-17T03:27:30.286Z,18.80
2022-08-17T03:29:58.220Z,16.80
2022-08-17T03:32:26.144Z,17.50
2022-08-17T03:34:59.617Z,19.00
2022-08-17T03:37:27.537Z,23.10
2022-08-17T03:39:55.693Z,22.60
2022-08-17T03:42:31.327Z,21.50
2022-08-17T03:45:01.553Z,20.80
2022-08-17T03:47:48.257Z,19.90
2022-08-17T03:50:36.854Z,21.50
2022-08-17T03:53:27.977Z,20.90
2022-08-17T03:56:19.060Z,19.80
2022-08-17T03:58:47.185Z,18.20
2022-08-17T04:01:16.393Z,19.00
2022-08-17T04:03:44.562Z,19.10
2022-08-17T04:06:12.498Z,19.50
2022-08-17T04:08:40.460Z,20.50
2022-08-17T04:11:08.353Z,19.10
2022-08-17T04:13:36.239Z,21.10
2022-08-17T04:16:04.458Z,23.10
2022-08-17T04:18:32.417Z,24.00
2022-08-17T04:21:01.633Z,37.60
2022-08-17T04:23:33.770Z,31.50
2022-08-17T04:26:02.192Z,36.90
2022-08-17T04:28:31.188Z,36.80
2022-08-17T04:30:59.269Z,35.00
2022-08-17T04:33:29.579Z,34.20
2022-08-17T04:36:00.640Z,24.90
2022-08-17T04:38:32.194Z,23.50
2022-08-17T04:41:19.604Z,29.40
2022-08-17T04:43:49.670Z,28.50
2022-08-17T04:46:19.625Z,28.30
2022-08-17T04:48:51.083Z,34.10
2022-08-17T04:51:28.241Z,32.00
2022-08-17T04:54:00.454Z,30.70
2022-08-17T04:56:30.382Z,28.20
2022-08-17T04:59:06.015Z,28.00
2022-08-17T05:01:36.701Z,28.00
2022-08-17T05:04:20.965Z,26.90
2022-08-17T05:06:59.263Z,26.40
2022-08-17T05:09:29.198Z,25.20
2022-08-17T05:12:01.567Z,26.40
2022-08-17T05:14:33.093Z,27.00
2022-08-17T05:17:09.393Z,24.70
2022-08-17T05:19:39.516Z,26.40
2022-08-17T05:22:08.088Z,26.90
2022-08-17T05:24:43.292Z,28.10
2022-08-17T05:27:19.556Z,27.50
2022-08-17T05:29:47.677Z,25.70
2022-08-17T05:32:38.550Z,28.00
2022-08-17T05:35:05.815Z,27.00
2022-08-17T05:37:33.778Z,26.90
2022-08-17T05:40:01.863Z,26.70
2022-08-17T05:42:29.954Z,28.00
2022-08-17T05:44:58.340Z,27.90
2022-08-17T05:47:27.435Z,26.30
2022-08-17T05:49:55.694Z,26.60
2022-08-17T05:52:42.226Z,26.40
2022-08-17T05:55:13.362Z,25.20
2022-08-17T05:57:56.351Z,27.00
2022-08-17T06:00:37.291Z,26.90
2022-08-17T06:03:18.583Z,29.40
2022-08-17T06:05:50.568Z,29.70
2022-08-17T06:08:27.614Z,28.10
2022-08-17T06:11:20.074Z,25.90
2022-08-17T06:13:48.310Z,26.40
2022-08-17T06:16:33.247Z,25.90
2022-08-17T06:19:11.857Z,23.60
2022-08-17T06:21:43.937Z,26.00
2022-08-17T06:24:20.511Z,24.70
2022-08-17T06:26:49.168Z,25.80
2022-08-17T06:29:41.550Z,24.70
2022-08-17T06:32:13.006Z,24.90
2022-08-17T06:34:43.796Z,23.90
2022-08-17T06:37:39.295Z,23.30
2022-08-17T06:40:22.281Z,28.70
2022-08-17T06:43:16.017Z,25.40
2022-08-17T06:45:49.618Z,29.30
2022-08-17T06:48:36.539Z,26.60
2022-08-17T06:51:17.762Z,26.70
2022-08-17T06:53:52.758Z,27.90
2022-08-17T06:56:54.532Z,26.80
2022-08-17T06:59:53.011Z,24.40
2022-08-17T07:02:53.045Z,24.90
2022-08-17T07:05:26.677Z,24.80
2022-08-17T07:08:45.879Z,23.20
2022-08-17T07:11:21.370Z,22.60
2022-08-17T07:14:16.939Z,21.60
2022-08-17T07:16:54.224Z,19.00
2022-08-17T07:19:26.846Z,20.30
2022-08-17T07:22:04.067Z,20.60
2022-08-17T07:24:43.389Z,20.60
2022-08-17T07:27:21.405Z,21.20
2022-08-17T07:29:57.997Z,19.60
2022-08-17T07:32:34.525Z,17.80
2022-08-17T07:35:10.743Z,19.80
2022-08-17T07:38:03.875Z,19.40
2022-08-17T07:40:36.646Z,18.60
2022-08-17T07:43:21.817Z,19.80
2022-08-17T07:46:32.734Z,17.60
2022-08-17T07:49:03.726Z,17.60
2022-08-17T07:51:36.601Z,17.20
2022-08-17T07:54:22.694Z,17.10
2022-08-17T07:57:01.530Z,17.80
2022-08-17T07:59:35.546Z,16.90
2022-08-17T08:02:31.105Z,16.30
2022-08-17T08:05:09.035Z,16.30
2022-08-17T08:08:00.880Z,16.40
2022-08-17T08:10:38.243Z,15.80
2022-08-17T08:13:15.747Z,14.60
2022-08-17T08:15:54.076Z,14.70
2022-08-17T08:18:54.917Z,14.90
2022-08-17T08:21:43.165Z,14.50
2022-08-17T08:24:40.820Z,17.10
2022-08-17T08:27:39.281Z,14.80
2022-08-17T08:30:21.681Z,14.20
2022-08-17T08:33:08.627Z,14.50
2022-08-17T08:35:52.482Z,15.20
2022-08-17T08:38:47.515Z,13.90
2022-08-17T08:41:24.449Z,14.80
2022-08-17T08:43:58.609Z,13.70
2022-08-17T08:46:31.189Z,14.90
2022-08-17T08:50:01.427Z,14.10
2022-08-17T08:52:31.156Z,14.20
2022-08-17T08:55:05.488Z,13.90
2022-08-17T08:58:31.497Z,15.40
2022-08-17T09:01:21.283Z,13.40
2022-08-17T09:04:25.385Z,13.20
2022-08-17T09:07:05.687Z,13.90
2022-08-17T09:09:59.023Z,13.10
2022-08-17T09:12:49.214Z,12.50
2022-08-17T09:15:26.806Z,11.80
2022-08-17T09:18:36.443Z,12.40
2022-08-17T09:21:01.681Z,12.10
2022-08-17T09:24:00.079Z,11.80
2022-08-17T09:26:56.395Z,11.30
2022-08-17T09:29:29.603Z,12.10
2022-08-17T09:32:03.735Z,12.50
2022-08-17T09:34:43.426Z,12.20
2022-08-17T09:37:29.722Z,12.20
2022-08-17T09:39:57.708Z,13.00
2022-08-17T09:42:49.999Z,12.70
2022-08-17T09:45:47.259Z,13.10
2022-08-17T09:48:20.993Z,12.80
2022-08-17T09:53:44.720Z,12.60
2022-08-17T09:56:31.723Z,13.60
2022-08-17T09:59:08.194Z,13.10
2022-08-17T10:02:17.166Z,14.60
2022-08-17T10:04:59.412Z,13.10
2022-08-17T10:07:40.785Z,15.00
2022-08-17T10:10:14.615Z,15.80
2022-08-17T10:12:48.743Z,15.70
2022-08-17T10:15:29.896Z,14.10
2022-08-17T10:18:31.841Z,12.50
2022-08-17T10:21:25.378Z,15.00
2022-08-17T10:25:21.560Z,12.90
2022-08-17T10:27:48.893Z,11.10
2022-08-17T10:30:20.133Z,11.70
2022-08-17T10:32:55.154Z,12.20
2022-08-17T10:35:49.640Z,12.60
2022-08-17T10:38:38.549Z,14.70
2022-08-17T10:41:40.875Z,14.50
2022-08-17T10:44:42.549Z,12.50
2022-08-17T10:47:16.929Z,12.70
2022-08-17T10:49:54.295Z,11.50
2022-08-17T10:52:24.821Z,11.90
2022-08-17T10:54:58.223Z,12.40
2022-08-17T10:57:49.758Z,11.80
2022-08-17T11:00:24.293Z,12.30
2022-08-17T11:02:57.684Z,12.40
2022-08-17T11:05:43.738Z,11.30
2022-08-17T11:08:15.254Z,11.10
2022-08-17T11:10:49.936Z,10.90
2022-08-17T11:13:40.671Z,11.70
2022-08-17T11:16:28.431Z,11.00
2022-08-17T11:19:27.061Z,10.70
2022-08-17T11:22:33.527Z,11.30
2022-08-17T11:25:16.431Z,11.20
2022-08-17T11:27:49.793Z,10.30
2022-08-17T11:30:47.059Z,10.30
2022-08-17T11:33:36.649Z,10.60
2022-08-17T11:36:23.530Z,9.80
2022-08-17T11:38:58.192Z,11.20
2022-08-17T11:42:09.366Z,11.50
2022-08-17T11:44:55.478Z,11.20
2022-08-17T11:48:02.239Z,11.10
2022-08-17T11:51:10.183Z,11.40
2022-08-17T11:53:38.002Z,12.00
2022-08-17T11:56:31.852Z,12.40
2022-08-17T11:59:00.972Z,12.20
2022-08-17T12:01:29.406Z,12.20
2022-08-17T12:04:25.430Z,11.60
2022-08-17T12:06:59.961Z,11.40
2022-08-17T12:09:32.525Z,11.90
2022-08-17T12:12:36.056Z,10.80
2022-08-17T12:15:12.102Z,10.20
2022-08-17T12:17:42.861Z,11.00
2022-08-17T12:20:24.267Z,11.30
2022-08-17T12:23:05.081Z,11.30
2022-08-17T12:25:45.985Z,10.30
2022-08-17T12:28:30.008Z,10.30
2022-08-17T12:31:05.986Z,10.70
2022-08-17T12:33:36.988Z,10.80
2022-08-17T12:36:08.901Z,10.40
2022-08-17T12:38:38.376Z,10.60
2022-08-17T12:41:28.461Z,10.60
2022-08-17T12:44:05.869Z,10.10
2022-08-17T12:46:47.273Z,10.40
2022-08-17T12:49:22.787Z,10.60
2022-08-17T12:51:56.088Z,10.20
2022-08-17T12:57:09.229Z,9.40
2022-08-17T12:59:41.475Z,10.10
2022-08-17T13:02:24.750Z,9.90
2022-08-17T13:04:53.804Z,10.00
2022-08-17T13:07:35.260Z,9.70
2022-08-17T13:10:04.489Z,9.90
2022-08-17T13:12:35.379Z,9.60
2022-08-17T13:15:04.420Z,9.60
2022-08-17T13:17:35.972Z,9.40
2022-08-17T13:20:13.484Z,8.70
2022-08-17T13:22:43.527Z,9.00
2022-08-17T13:25:16.917Z,9.10
2022-08-17T13:27:47.774Z,9.40
2022-08-17T13:30:23.974Z,10.80
2022-08-17T13:32:53.990Z,9.80
2022-08-17T13:35:40.610Z,9.90
2022-08-17T13:38:49.690Z,9.30
2022-08-17T13:41:34.696Z,9.10
2022-08-17T13:44:04.402Z,8.30
2022-08-17T13:46:33.425Z,8.90
2022-08-17T13:49:11.752Z,9.30
2022-08-17T13:51:45.793Z,9.00
2022-08-17T13:54:23.613Z,8.90
2022-08-17T13:56:51.426Z,9.50
2022-08-17T13:59:54.868Z,8.90
2022-08-17T14:02:27.689Z,8.60
2022-08-17T14:04:58.484Z,9.20
2022-08-17T14:07:34.136Z,8.80
2022-08-17T14:10:13.770Z,9.00
2022-08-17T14:12:43.901Z,9.00
2022-08-17T14:15:14.876Z,9.60
2022-08-17T14:17:42.851Z,9.60
2022-08-17T14:20:13.397Z,9.60
2022-08-17T14:22:45.440Z,9.20
2022-08-17T14:25:24.222Z,9.30
2022-08-17T14:27:54.067Z,8.50
2022-08-17T14:30:25.913Z,8.90
2022-08-17T14:32:58.299Z,8.40
2022-08-17T14:35:28.277Z,8.10
2022-08-17T14:37:57.391Z,9.40
2022-08-17T14:40:25.942Z,9.30
2022-08-17T14:42:56.056Z,9.40
2022-08-17T14:45:32.892Z,9.80
2022-08-17T14:48:04.427Z,10.90
2022-08-17T14:50:35.318Z,9.80
2022-08-17T14:53:06.044Z,9.60
2022-08-17T14:55:35.096Z,8.70
2022-08-17T14:58:04.284Z,8.50
2022-08-17T15:00:32.746Z,8.50
2022-08-17T15:03:01.979Z,8.60
2022-08-17T15:05:33.730Z,8.30
2022-08-17T15:08:03.316Z,8.70
2022-08-17T15:10:32.035Z,8.30
2022-08-17T15:13:00.601Z,8.10
2022-08-17T15:15:29.678Z,7.90
2022-08-17T15:18:00.118Z,7.90
2022-08-17T15:20:29.994Z,9.40
2022-08-17T15:22:59.356Z,8.50
2022-08-17T15:25:32.303Z,9.10
2022-08-17T15:28:01.723Z,8.30
2022-08-17T15:30:31.613Z,8.40
2022-08-17T15:33:01.951Z,7.30
2022-08-17T15:35:33.281Z,7.80
2022-08-17T15:38:11.287Z,7.60
2022-08-17T15:40:47.027Z,7.80
2022-08-17T15:43:23.316Z,8.00
2022-08-17T15:46:18.232Z,7.30
2022-08-17T15:48:49.725Z,6.50
2022-08-17T15:51:17.768Z,6.80
2022-08-17T15:53:50.773Z,6.50
2022-08-17T15:56:19.687Z,6.50
2022-08-17T15:58:48.891Z,6.70
2022-08-17T16:02:11.974Z,7.40
2022-08-17T16:04:14.921Z,9.30
2022-08-17T16:06:57.803Z,9.50
2022-08-17T16:09:26.067Z,9.80
2022-08-17T16:11:56.317Z,9.60
2022-08-17T16:14:32.554Z,9.50
2022-08-17T16:17:05.021Z,9.00
2022-08-17T16:19:53.031Z,9.60
2022-08-17T16:22:33.202Z,9.50
2022-08-17T16:25:08.358Z,9.80
2022-08-17T16:27:36.330Z,9.90
2022-08-17T16:30:07.545Z,10.00
2022-08-17T16:32:36.324Z,11.50
2022-08-17T16:35:08.921Z,10.40
2022-08-17T16:37:39.638Z,10.00
2022-08-17T16:40:10.525Z,10.10
2022-08-17T16:42:42.951Z,9.90
2022-08-17T16:45:14.743Z,10.00
2022-08-17T16:47:43.139Z,9.80
2022-08-17T16:50:14.744Z,9.80
2022-08-17T16:52:42.767Z,9.50
2022-08-17T16:55:13.447Z,9.10
2022-08-17T16:57:48.556Z,9.00
2022-08-17T17:00:20.970Z,9.40
2022-08-17T17:02:50.157Z,11.30
2022-08-17T17:05:51.308Z,10.80
2022-08-17T17:08:31.865Z,9.20
2022-08-17T17:11:08.937Z,9.90
2022-08-17T17:13:54.309Z,9.70
2022-08-17T17:16:29.722Z,10.90
2022-08-17T17:19:08.351Z,9.90
2022-08-17T17:21:49.793Z,9.20
2022-08-17T17:24:53.221Z,9.80
2022-08-17T17:27:59.611Z,10.00
2022-08-17T17:30:46.024Z,8.70
2022-08-17T17:33:34.877Z,9.70
2022-08-17T17:36:13.970Z,10.00
2022-08-17T17:38:50.142Z,9.90
2022-08-17T17:41:32.606Z,10.40
2022-08-17T17:44:07.591Z,10.90
2022-08-17T17:46:40.738Z,10.60
2022-08-17T17:49:14.412Z,10.90
2022-08-17T17:52:11.059Z,10.40
2022-08-17T17:54:59.392Z,10.40
2022-08-17T17:57:56.035Z,11.70
2022-08-17T18:00:30.766Z,11.30
2022-08-17T18:03:20.649Z,10.20
2022-08-17T18:06:06.957Z,10.70
2022-08-17T18:09:04.299Z,11.90
2022-08-17T18:12:00.827Z,12.10
2022-08-17T18:14:28.825Z,11.30
2022-08-17T18:16:59.266Z,11.30
2022-08-17T18:19:30.025Z,10.90
2022-08-17T18:22:14.595Z,11.50
2022-08-17T18:24:46.303Z,11.10
2022-08-17T18:27:40.721Z,11.50
2022-08-17T18:30:14.589Z,11.40
2022-08-17T18:32:46.691Z,11.30
2022-08-17T18:35:14.654Z,12.00
2022-08-17T18:37:43.070Z,12.10
2022-08-17T18:40:17.261Z,11.50
2022-08-17T18:42:57.543Z,11.10
2022-08-17T18:45:38.653Z,11.40
2022-08-17T18:48:19.775Z,11.80
2022-08-17T18:50:48.476Z,12.20
2022-08-17T18:56:22.549Z,11.60
2022-08-17T18:59:04.540Z,12.10
2022-08-17T19:01:59.929Z,12.80
2022-08-17T19:04:34.094Z,12.40
2022-08-17T19:09:53.357Z,12.20
2022-08-17T19:13:14.345Z,12.90
2022-08-17T19:16:15.917Z,12.40
2022-08-17T19:18:52.356Z,12.00
2022-08-17T19:21:40.598Z,12.90
2022-08-17T19:24:20.082Z,12.70
2022-08-17T19:27:06.616Z,12.70
2022-08-17T19:29:50.631Z,11.80
2022-08-17T19:32:23.595Z,12.80
2022-08-17T19:34:52.558Z,12.90
2022-08-17T19:37:32.964Z,12.60
2022-08-17T19:40:29.276Z,13.80
2022-08-17T19:43:02.610Z,13.60
2022-08-17T19:45:40.007Z,13.60
2022-08-17T19:48:12.747Z,13.30
2022-08-17T19:51:07.889Z,13.40
2022-08-17T19:54:15.464Z,15.10
2022-08-17T19:57:02.692Z,13.80
2022-08-17T20:00:03.051Z,15.00
2022-08-17T20:02:42.346Z,16.00
2022-08-17T20:06:08.839Z,15.10
2022-08-17T20:08:33.473Z,15.50
2022-08-17T20:11:15.274Z,14.30
2022-08-17T20:13:50.201Z,15.10
2022-08-17T20:16:20.211Z,13.60
2022-08-17T20:18:50.686Z,14.90
2022-08-17T20:21:23.699Z,13.70
2022-08-17T20:24:14.198Z,13.80
2022-08-17T20:26:57.900Z,13.90
2022-08-17T20:29:37.268Z,14.50
2022-08-17T20:32:19.017Z,13.70
2022-08-17T20:34:48.010Z,15.50
2022-08-17T20:37:15.907Z,15.70
2022-08-17T20:39:50.222Z,14.10
2022-08-17T20:42:20.949Z,14.90
2022-08-17T20:44:58.140Z,12.30
2022-08-17T20:47:55.095Z,11.50
2022-08-17T20:50:34.857Z,13.00
2022-08-17T20:53:05.518Z,13.00
2022-08-17T20:55:51.520Z,12.50
2022-08-17T20:58:30.624Z,14.90
2022-08-17T21:01:00.276Z,15.50
2022-08-17T21:03:28.422Z,13.60
2022-08-17T21:06:19.255Z,12.50
2022-08-17T21:08:58.776Z,11.70
2022-08-17T21:11:56.766Z,11.60
2022-08-17T21:14:56.513Z,12.00
2022-08-17T21:17:33.483Z,12.00
2022-08-17T21:20:43.315Z,13.00
2022-08-17T21:23:22.794Z,12.70
2022-08-17T21:26:02.687Z,12.50
2022-08-17T21:29:00.450Z,11.90
2022-08-17T21:32:09.730Z,12.20
2022-08-17T21:34:43.215Z,13.30
2022-08-17T21:37:20.232Z,12.20
2022-08-17T21:39:55.823Z,13.30
2022-08-17T21:42:32.205Z,12.30
2022-08-17T21:45:10.028Z,12.60
2022-08-17T21:47:43.513Z,12.10
2022-08-17T21:50:21.580Z,12.00
2022-08-17T21:52:56.120Z,12.60
2022-08-17T21:55:29.932Z,12.60
2022-08-17T21:58:14.916Z,12.50
2022-08-17T22:00:44.725Z,13.20
2022-08-17T22:03:26.599Z,13.10
2022-08-17T22:05:54.643Z,12.40
2022-08-17T22:08:25.330Z,12.00
2022-08-17T22:11:01.393Z,18.30
2022-08-17T22:13:30.041Z,12.60
2022-08-17T22:16:29.543Z,12.30
2022-08-17T22:18:59.609Z,12.30
2022-08-17T22:21:27.557Z,13.30
2022-08-17T22:24:06.245Z,13.50
2022-08-17T22:27:06.201Z,11.70
2022-08-17T22:29:45.629Z,12.10
2022-08-17T22:32:35.191Z,11.30
2022-08-17T22:35:32.996Z,12.60
2022-08-17T22:38:19.580Z,12.30
2022-08-17T22:40:51.263Z,12.80
2022-08-17T22:43:24.200Z,11.80
2022-08-17T22:45:58.426Z,11.30
2022-08-17T22:48:29.473Z,12.30
2022-08-17T22:51:31.205Z,11.20
2022-08-17T22:54:21.923Z,12.00
2022-08-17T22:57:19.994Z,10.50
2022-08-17T23:04:01.618Z,11.00
2022-08-17T23:06:33.983Z,10.70
2022-08-17T23:09:04.381Z,11.20
2022-08-17T23:11:58.672Z,11.40
2022-08-17T23:14:31.726Z,12.40
2022-08-17T23:17:00.880Z,11.70
2022-08-17T23:19:31.866Z,11.70
2022-08-17T23:22:04.418Z,11.80
2022-08-17T23:24:43.614Z,12.00
2022-08-17T23:27:12.347Z,11.40
2022-08-17T23:29:42.253Z,12.70
2022-08-17T23:32:14.819Z,14.20
2022-08-17T23:34:45.156Z,11.60
2022-08-17T23:37:13.267Z,11.80
2022-08-17T23:39:44.674Z,11.50
2022-08-17T23:42:16.666Z,10.90
2022-08-17T23:44:44.973Z,10.60
2022-08-17T23:47:12.906Z,12.80
2022-08-17T23:49:42.140Z,10.90
2022-08-17T23:52:15.340Z,14.30
2022-08-17T23:54:48.265Z,12.00
2022-08-17T23:57:19.409Z,14.80
2022-08-17T23:59:47.311Z,14.10
